East Lawrenceville, Pennsylvania
Current Conditions -  °F | °C
As of 10:53 AM on Friday 24 Oct 2014 (Local Time) from KELM Reporting Station
Clear Clear  
Wind Chill: 14°   Ceiling: Unl
Heat Index: 14°   Visibility: 10mi
Dew Point:   Wind: 10mph
Humidity: 57%   Direction: 280°W
Pressure: 29.95"   Gusts: NA
Location:  41.971°N, 77.1237°W
Report Text: KELM 241453Z 28009KT 10SM CLR 14/06 A2995 RMK AO2 SLP143 T01390056 58002
Loading
Personal Weather Stations






























Interactive Weather Map
Tropical Storm Tracking
New forecast layout! Learn more

10-Day Weather Forecast

Advertisements
Track Severe Weather on mobile